Time;durP1;ratioP1;P1;durP2;ratioP2;P2;SDS_P1;SDS_P2;PMS_P1;PMS_P2;Temp;Humidity;BMP_temperature;BMP_pressure;BME280_temperature;BME280_humidity;BME280_pressure;Samples;Min_cycle;Max_cycle;Signal;HPM_P1;HPM_P2
2021/01/21 00:00:53;;;;;;;16.92;4.63;;;24.20;57.40;;;;;;6240183;23;20042;-71
2021/01/21 00:03:19;;;;;;;11.88;4.18;;;24.20;57.50;;;;;;6241489;23;20011;-70
2021/01/21 00:05:45;;;;;;;17.00;5.28;;;24.20;57.50;;;;;;6239133;23;20114;-71
2021/01/21 00:08:12;;;;;;;15.90;4.47;;;24.20;57.60;;;;;;6242364;23;20004;-70
2021/01/21 00:10:38;;;;;;;15.70;4.70;;;24.20;57.60;;;;;;6241519;23;20003;-70
2021/01/21 00:13:05;;;;;;;15.00;4.78;;;24.20;57.60;;;;;;6242328;23;20004;-71
2021/01/21 00:15:31;;;;;;;13.55;5.05;;;24.20;57.70;;;;;;6241900;23;20003;-71
2021/01/21 00:18:00;;;;;;;17.55;4.72;;;24.10;57.60;;;;;;6242021;23;20012;-71
2021/01/21 00:20:27;;;;;;;11.25;5.00;;;24.10;57.70;;;;;;6242608;23;20006;-71
2021/01/21 00:22:54;;;;;;;17.58;5.85;;;24.10;57.70;;;;;;6241370;23;20023;-71
2021/01/21 00:25:20;;;;;;;18.75;4.97;;;24.10;57.80;;;;;;6242412;23;20054;-72
2021/01/21 00:27:46;;;;;;;15.98;5.50;;;24.10;57.80;;;;;;6241430;23;19997;-70
2021/01/21 00:30:13;;;;;;;17.13;4.72;;;24.10;57.80;;;;;;6242722;23;20007;-70
2021/01/21 00:32:40;;;;;;;15.50;4.10;;;24.10;57.80;;;;;;6241568;23;20003;-71
2021/01/21 00:35:07;;;;;;;16.17;6.07;;;24.00;57.80;;;;;;6242174;22;20015;-71
2021/01/21 00:37:34;;;;;;;13.43;4.22;;;24.10;57.90;;;;;;6242457;23;20000;-71
2021/01/21 00:40:00;;;;;;;12.70;4.22;;;24.00;57.90;;;;;;6241192;23;19996;-71
2021/01/21 00:42:27;;;;;;;17.63;4.78;;;24.00;58.00;;;;;;6242307;23;19996;-70
2021/01/21 00:44:53;;;;;;;15.05;3.85;;;24.00;58.60;;;;;;6241388;23;20036;-70
2021/01/21 00:47:20;;;;;;;19.10;4.22;;;23.90;58.00;;;;;;6242532;23;20004;-70
2021/01/21 00:49:46;;;;;;;11.55;4.28;;;23.90;58.00;;;;;;6239647;23;20004;-70
2021/01/21 00:52:13;;;;;;;14.43;3.72;;;23.90;58.00;;;;;;6241658;23;20359;-71
2021/01/21 00:54:39;;;;;;;22.35;4.65;;;23.90;58.00;;;;;;6241652;23;20015;-70
2021/01/21 00:57:06;;;;;;;20.77;4.65;;;23.90;58.10;;;;;;6241385;23;19996;-71
2021/01/21 00:59:32;;;;;;;16.08;4.25;;;23.90;58.10;;;;;;6242230;23;20034;-70
2021/01/21 01:01:59;;;;;;;15.32;4.55;;;23.90;58.20;;;;;;6240779;23;20435;-70
2021/01/21 01:04:25;;;;;;;19.30;4.88;;;23.90;58.20;;;;;;6240936;22;20019;-70
2021/01/21 01:06:52;;;;;;;14.18;4.43;;;23.80;58.20;;;;;;6241018;23;20008;-71
2021/01/21 01:09:20;;;;;;;17.38;3.47;;;23.90;58.30;;;;;;6242370;23;20034;-70
2021/01/21 01:11:46;;;;;;;14.82;4.72;;;23.80;58.30;;;;;;6241238;23;20008;-70
2021/01/21 01:14:14;;;;;;;13.10;3.13;;;23.80;58.30;;;;;;6241351;23;19996;-71
2021/01/21 01:16:40;;;;;;;13.75;4.18;;;23.80;58.40;;;;;;6242404;23;20000;-69
2021/01/21 01:19:07;;;;;;;11.18;4.35;;;23.80;58.40;;;;;;6241504;23;20069;-71
2021/01/21 01:21:34;;;;;;;13.05;4.22;;;23.80;58.50;;;;;;6242366;23;20003;-70
2021/01/21 01:24:00;;;;;;;14.15;5.13;;;23.80;58.50;;;;;;6241167;23;19996;-70
2021/01/21 01:26:27;;;;;;;15.93;3.83;;;23.80;58.50;;;;;;6242292;23;20008;-70
2021/01/21 01:28:53;;;;;;;16.40;4.90;;;23.70;58.60;;;;;;6240998;23;20000;-70
2021/01/21 01:31:20;;;;;;;14.07;3.70;;;23.70;58.60;;;;;;6241095;23;20034;-70
2021/01/21 01:33:46;;;;;;;9.88;3.88;;;23.70;58.60;;;;;;6241356;23;20055;-70
2021/01/21 01:36:13;;;;;;;10.93;4.05;;;23.70;58.60;;;;;;6240731;23;20023;-70
2021/01/21 01:38:39;;;;;;;11.27;3.55;;;23.70;58.60;;;;;;6241657;23;20324;-70
2021/01/21 01:41:06;;;;;;;14.95;4.90;;;23.70;58.80;;;;;;6240754;23;20019;-71
2021/01/21 01:43:32;;;;;;;13.15;4.00;;;23.60;58.70;;;;;;6241468;23;20000;-71
2021/01/21 01:45:59;;;;;;;14.73;4.03;;;23.60;58.70;;;;;;6240280;23;20008;-70
2021/01/21 01:48:25;;;;;;;13.02;4.88;;;23.60;58.80;;;;;;6241385;23;20431;-70
2021/01/21 01:50:52;;;;;;;17.80;5.63;;;23.60;58.90;;;;;;6240994;23;20005;-70
2021/01/21 01:53:19;;;;;;;18.08;5.40;;;23.60;58.90;;;;;;6240499;23;20059;-70
2021/01/21 01:55:45;;;;;;;14.63;4.05;;;23.60;58.90;;;;;;6241517;23;20008;-70
2021/01/21 01:58:17;;;;;;;14.15;3.25;;;23.60;58.90;;;;;;6240250;23;20340;-71
2021/01/21 02:00:45;;;;;;;20.98;5.03;;;23.60;58.80;;;;;;6241828;23;20399;-70
2021/01/21 02:03:12;;;;;;;16.50;4.10;;;23.60;58.90;;;;;;6240929;23;20004;-70
2021/01/21 02:05:39;;;;;;;14.13;4.75;;;23.50;59.00;;;;;;6241976;23;20018;-70
2021/01/21 02:08:06;;;;;;;15.35;4.97;;;23.50;59.10;;;;;;6240933;22;20004;-71
2021/01/21 02:10:32;;;;;;;16.50;4.90;;;23.50;59.10;;;;;;6240806;22;20015;-70
2021/01/21 02:13:17;;;;;;;20.33;5.97;;;23.50;59.20;;;;;;6239240;23;20008;-70
2021/01/21 02:16:08;;;;;;;12.38;4.10;;;23.50;59.30;;;;;;6240213;23;20004;-71
2021/01/21 02:19:04;;;;;;;16.83;5.15;;;23.50;59.30;;;;;;6241850;23;20410;-70
2021/01/21 02:21:45;;;;;;;9.85;4.95;;;23.50;59.30;;;;;;6241226;23;20042;-70
2021/01/21 02:24:33;;;;;;;13.20;3.85;;;23.40;59.40;;;;;;6240031;23;20011;-70
2021/01/21 02:27:06;;;;;;;16.67;4.05;;;23.40;59.40;;;;;;6241408;23;20008;-70
2021/01/21 02:29:39;;;;;;;14.82;4.05;;;23.40;59.40;;;;;;6240496;23;19996;-70
2021/01/21 02:32:08;;;;;;;16.13;4.63;;;23.40;59.50;;;;;;6236607;23;20301;-72
2021/01/21 02:34:56;;;;;;;18.60;7.32;;;23.40;59.50;;;;;;6240654;23;20008;-70
2021/01/21 02:37:27;;;;;;;15.02;7.70;;;23.40;59.50;;;;;;6240771;23;20031;-70
2021/01/21 02:39:56;;;;;;;17.00;6.78;;;23.40;59.60;;;;;;6240963;23;20053;-70
2021/01/21 02:42:24;;;;;;;12.45;5.38;;;23.40;60.30;;;;;;6239541;23;20005;-70
2021/01/21 02:44:51;;;;;;;15.50;6.10;;;23.40;59.70;;;;;;6239739;22;20008;-71
2021/01/21 02:47:21;;;;;;;17.17;4.97;;;23.40;59.80;;;;;;6240570;23;20000;-70
2021/01/21 02:49:49;;;;;;;16.35;4.68;;;23.30;59.70;;;;;;6240289;23;19989;-71
2021/01/21 02:52:29;;;;;;;15.98;4.32;;;23.30;59.70;;;;;;6239944;23;20427;-69
2021/01/21 02:55:13;;;;;;;12.93;3.97;;;23.30;59.70;;;;;;6239857;23;20099;-70
2021/01/21 02:58:03;;;;;;;17.70;3.63;;;23.40;60.50;;;;;;6239513;23;20023;-72
2021/01/21 03:00:32;;;;;;;14.40;4.45;;;23.30;59.90;;;;;;6208649;23;20023;-70
2021/01/21 03:03:00;;;;;;;15.48;4.75;;;23.30;60.00;;;;;;6239778;23;20020;-70
2021/01/21 03:05:30;;;;;;;13.02;4.32;;;23.30;60.00;;;;;;6241988;23;20070;-72
2021/01/21 03:07:57;;;;;;;12.63;4.00;;;23.20;59.90;;;;;;6238652;22;20004;-72
2021/01/21 03:10:23;;;;;;;12.65;3.83;;;23.30;60.00;;;;;;6241294;23;19999;-73
2021/01/21 03:12:54;;;;;;;17.70;4.40;;;23.20;59.90;;;;;;6240378;23;19997;-71
2021/01/21 03:15:22;;;;;;;15.20;3.60;;;23.20;60.00;;;;;;6240530;23;19996;-72
2021/01/21 03:17:49;;;;;;;16.33;6.82;;;23.20;60.00;;;;;;6241168;23;20004;-72
2021/01/21 03:20:16;;;;;;;16.40;7.80;;;23.20;60.00;;;;;;6240524;23;20058;-72
2021/01/21 03:22:44;;;;;;;14.70;8.07;;;23.20;60.10;;;;;;6240571;23;20007;-70
2021/01/21 03:25:11;;;;;;;17.13;5.65;;;23.20;60.00;;;;;;6239607;23;20569;-71
2021/01/21 03:27:38;;;;;;;13.75;4.60;;;23.20;60.10;;;;;;6240785;23;20006;-72
2021/01/21 03:30:10;;;;;;;11.70;4.38;;;23.20;60.10;;;;;;6240358;23;20004;-72
2021/01/21 03:32:37;;;;;;;14.40;4.25;;;23.20;60.10;;;;;;6241428;23;20024;-72
2021/01/21 03:35:05;;;;;;;10.73;4.15;;;23.20;60.10;;;;;;6241311;23;20008;-71
2021/01/21 03:37:32;;;;;;;18.30;5.15;;;23.10;60.00;;;;;;6239580;22;20424;-71
2021/01/21 03:39:59;;;;;;;14.75;3.70;;;23.10;60.00;;;;;;6241567;23;20000;-71
2021/01/21 03:42:26;;;;;;;10.93;3.47;;;23.10;60.00;;;;;;6241781;23;20046;-72
2021/01/21 03:44:52;;;;;;;9.38;2.88;;;23.10;60.00;;;;;;6242958;23;20035;-73
2021/01/21 03:47:19;;;;;;;16.48;4.28;;;23.10;60.10;;;;;;6242080;23;20088;-73
2021/01/21 03:49:45;;;;;;;14.30;4.93;;;23.10;60.00;;;;;;6242191;23;20012;-73
2021/01/21 03:52:12;;;;;;;11.15;3.85;;;23.10;60.10;;;;;;6242277;23;20090;-72
2021/01/21 03:54:38;;;;;;;17.45;4.18;;;23.10;60.20;;;;;;6241828;23;20050;-72
2021/01/21 03:57:05;;;;;;;12.85;3.50;;;23.00;60.20;;;;;;6242276;22;20015;-69
2021/01/21 03:59:32;;;;;;;13.15;5.72;;;23.10;60.30;;;;;;6241931;23;20012;-72
2021/01/21 04:01:59;;;;;;;15.15;7.93;;;23.00;60.30;;;;;;6242696;23;20023;-71
2021/01/21 04:04:26;;;;;;;17.45;6.70;;;23.00;60.20;;;;;;6241091;23;20001;-74
2021/01/21 04:06:53;;;;;;;16.90;6.47;;;23.00;60.20;;;;;;6242398;23;20012;-71
2021/01/21 04:09:19;;;;;;;14.40;5.60;;;23.00;60.20;;;;;;6241851;23;20005;-72
2021/01/21 04:11:46;;;;;;;17.05;5.22;;;23.10;60.20;;;;;;6241806;23;20087;-73
2021/01/21 04:14:12;;;;;;;9.55;3.67;;;23.00;60.20;;;;;;6242884;23;20050;-73
2021/01/21 04:16:39;;;;;;;11.07;4.38;;;23.00;60.20;;;;;;6241306;23;20422;-72
2021/01/21 04:19:05;;;;;;;28.42;17.63;;;23.00;60.30;;;;;;6242614;23;20499;-71
2021/01/21 04:21:32;;;;;;;26.90;19.13;;;23.00;60.30;;;;;;6240468;23;20004;-72
2021/01/21 04:24:01;;;;;;;23.42;11.63;;;23.00;60.30;;;;;;6242880;23;20027;-71
2021/01/21 04:26:28;;;;;;;21.40;9.35;;;23.00;60.40;;;;;;6241712;23;20424;-70
2021/01/21 04:28:55;;;;;;;20.90;6.47;;;23.00;60.50;;;;;;6241608;22;20004;-72
2021/01/21 04:31:21;;;;;;;18.73;9.98;;;23.00;60.40;;;;;;6242453;23;20002;-72
2021/01/21 04:33:48;;;;;;;18.88;11.63;;;22.90;60.40;;;;;;6240688;23;20014;-71
2021/01/21 04:36:15;;;;;;;16.73;9.43;;;23.00;60.50;;;;;;6243170;23;20000;-73
2021/01/21 04:38:41;;;;;;;14.10;5.80;;;22.90;60.50;;;;;;6240892;23;20000;-72
2021/01/21 04:41:08;;;;;;;11.90;6.07;;;22.90;60.50;;;;;;6241996;23;20426;-74
2021/01/21 04:43:35;;;;;;;20.52;5.53;;;22.90;60.50;;;;;;6240608;22;20094;-72
2021/01/21 04:46:02;;;;;;;14.10;3.90;;;22.90;60.60;;;;;;6241656;23;20012;-71
2021/01/21 04:48:29;;;;;;;9.68;2.97;;;22.90;60.60;;;;;;6242008;23;20007;-71
2021/01/21 04:50:57;;;;;;;9.88;3.70;;;22.90;60.60;;;;;;6240354;23;19996;-73
2021/01/21 04:53:26;;;;;;;14.50;4.75;;;22.90;60.70;;;;;;6242317;23;20443;-71
2021/01/21 04:55:59;;;;;;;14.48;4.80;;;22.90;60.70;;;;;;6240379;23;20423;-71
2021/01/21 04:58:52;;;;;;;13.13;3.58;;;22.90;60.70;;;;;;6242011;23;20050;-71
2021/01/21 05:01:19;;;;;;;11.80;3.92;;;22.90;60.70;;;;;;6242025;23;20111;-71
2021/01/21 05:03:47;;;;;;;8.93;3.40;;;22.90;60.70;;;;;;6242215;23;20740;-72
2021/01/21 05:06:14;;;;;;;9.80;3.35;;;22.90;60.80;;;;;;6242612;22;20019;-72
2021/01/21 05:08:41;;;;;;;10.38;3.05;;;22.90;60.80;;;;;;6240875;23;19996;-71
2021/01/21 05:11:08;;;;;;;10.27;2.90;;;22.90;60.80;;;;;;6240923;22;20011;-71
2021/01/21 05:13:34;;;;;;;10.50;2.97;;;22.90;60.80;;;;;;6240670;23;20058;-71
2021/01/21 05:16:01;;;;;;;8.23;3.00;;;22.90;60.80;;;;;;6241485;23;20088;-72
2021/01/21 05:18:29;;;;;;;11.07;4.38;;;22.90;60.80;;;;;;6239724;23;20004;-70
2021/01/21 05:20:55;;;;;;;8.48;3.28;;;22.90;60.80;;;;;;6241139;23;20000;-73
2021/01/21 05:23:28;;;;;;;8.45;3.58;;;22.90;60.90;;;;;;6242692;23;20000;-72
2021/01/21 05:25:55;;;;;;;9.38;3.53;;;23.00;60.90;;;;;;6240967;23;20039;-73
2021/01/21 05:28:22;;;;;;;13.15;3.33;;;23.00;60.90;;;;;;6241556;23;20053;-73
2021/01/21 05:30:49;;;;;;;12.60;4.60;;;23.00;60.90;;;;;;6240931;23;19996;-71
2021/01/21 05:33:16;;;;;;;15.80;8.55;;;23.00;61.00;;;;;;6242355;23;20324;-71
2021/01/21 05:35:43;;;;;;;15.73;10.55;;;23.00;61.10;;;;;;6241832;23;20078;-71
2021/01/21 05:38:10;;;;;;;16.98;10.93;;;23.00;61.10;;;;;;6240619;23;20069;-71
2021/01/21 05:40:36;;;;;;;15.10;9.23;;;23.00;60.90;;;;;;6241602;23;20000;-72
2021/01/21 05:43:03;;;;;;;13.02;6.65;;;23.10;60.90;;;;;;6240294;23;20030;-72
2021/01/21 05:45:30;;;;;;;17.08;5.47;;;23.10;60.80;;;;;;6242017;23;20019;-72
2021/01/21 05:47:58;;;;;;;16.40;5.35;;;23.10;60.80;;;;;;6240527;23;20450;-72
2021/01/21 05:50:26;;;;;;;12.07;3.40;;;23.10;60.80;;;;;;6241422;23;20420;-72
2021/01/21 05:52:57;;;;;;;8.45;3.03;;;23.10;60.70;;;;;;6241054;23;19996;-71
2021/01/21 05:55:25;;;;;;;10.68;3.22;;;23.10;60.60;;;;;;6240275;23;20546;-72
2021/01/21 05:57:53;;;;;;;15.80;3.67;;;23.20;60.50;;;;;;6241983;23;20000;-72
2021/01/21 06:00:23;;;;;;;10.32;3.67;;;23.20;60.40;;;;;;6239782;23;20019;-73
2021/01/21 06:02:56;;;;;;;12.68;3.78;;;23.20;60.30;;;;;;6240438;23;20083;-73
2021/01/21 06:05:23;;;;;;;7.57;3.63;;;23.20;60.40;;;;;;6236978;23;20016;-73
2021/01/21 06:07:51;;;;;;;10.02;4.13;;;23.30;60.50;;;;;;6240485;23;20015;-72
2021/01/21 06:10:20;;;;;;;10.48;5.90;;;23.30;60.60;;;;;;6240406;23;20004;-75
2021/01/21 06:12:51;;;;;;;15.73;6.20;;;23.30;60.60;;;;;;6240987;23;20466;-81
2021/01/21 06:15:19;;;;;;;13.63;4.88;;;23.30;60.50;;;;;;6240721;23;20000;-74
2021/01/21 06:17:48;;;;;;;15.13;5.13;;;23.40;60.60;;;;;;6240067;23;20000;-74
2021/01/21 06:20:16;;;;;;;11.35;5.45;;;23.40;60.50;;;;;;6241214;23;20007;-72
2021/01/21 06:22:44;;;;;;;8.93;4.35;;;23.40;60.50;;;;;;6239362;23;20004;-71
2021/01/21 06:25:13;;;;;;;10.00;5.13;;;23.40;60.40;;;;;;6237546;23;20008;-74
2021/01/21 06:27:42;;;;;;;11.82;4.10;;;23.50;61.00;;;;;;6240807;23;20007;-72
2021/01/21 06:30:18;;;;;;;8.73;3.40;;;23.50;60.30;;;;;;6239741;23;20011;-71
2021/01/21 06:33:08;;;;;;;11.27;4.10;;;23.50;60.20;;;;;;6242088;23;20028;-70
2021/01/21 06:36:02;;;;;;;11.63;6.30;;;23.60;60.20;;;;;;6239601;23;20000;-71
2021/01/21 06:38:38;;;;;;;14.55;6.28;;;23.60;60.00;;;;;;6239578;23;20016;-73
2021/01/21 06:41:20;;;;;;;12.55;6.32;;;23.70;59.90;;;;;;6240749;23;20055;-70
2021/01/21 06:43:47;;;;;;;10.90;5.13;;;23.70;59.80;;;;;;6238253;23;20000;-70
2021/01/21 06:46:15;;;;;;;11.73;4.53;;;23.80;59.70;;;;;;6236425;23;20016;-71
2021/01/21 06:48:50;;;;;;;16.55;4.35;;;23.80;59.60;;;;;;6236489;23;20007;-72
2021/01/21 06:51:19;;;;;;;11.23;5.35;;;23.80;59.40;;;;;;6237331;23;20011;-70
2021/01/21 06:53:48;;;;;;;9.00;4.03;;;23.80;59.30;;;;;;6236868;23;20011;-73
2021/01/21 06:56:14;;;;;;;12.18;3.72;;;23.90;59.30;;;;;;6236226;23;20058;-72
2021/01/21 06:58:48;;;;;;;9.23;3.95;;;23.90;59.20;;;;;;6236595;23;20004;-72
2021/01/21 07:01:32;;;;;;;8.40;4.15;;;23.90;59.10;;;;;;6235955;23;20027;-74
2021/01/21 07:04:25;;;;;;;13.27;4.88;;;23.90;59.00;;;;;;6236339;23;20057;-73
2021/01/21 07:06:55;;;;;;;9.00;4.28;;;24.00;59.00;;;;;;6237303;23;20103;-72
2021/01/21 07:09:24;;;;;;;23.48;17.13;;;24.00;58.80;;;;;;6236305;23;20004;-73
2021/01/21 07:11:54;;;;;;;15.40;10.73;;;24.00;58.70;;;;;;6236358;23;20000;-72
2021/01/21 07:14:22;;;;;;;12.55;8.82;;;24.10;58.60;;;;;;6236719;23;20130;-73
2021/01/21 07:17:04;;;;;;;19.20;8.77;;;24.10;59.40;;;;;;6240075;23;20406;-72
2021/01/21 07:19:38;;;;;;;16.05;8.85;;;24.10;58.80;;;;;;6238622;23;20011;-72
2021/01/21 07:22:24;;;;;;;10.35;6.03;;;24.20;58.60;;;;;;6238809;23;20437;-73
2021/01/21 07:24:58;;;;;;;13.20;6.45;;;24.20;58.30;;;;;;6240049;23;20434;-72
2021/01/21 07:27:28;;;;;;;10.30;5.45;;;24.20;57.90;;;;;;6238268;23;20020;-71
2021/01/21 07:30:16;;;;;;;10.07;4.25;;;24.30;58.20;;;;;;6240507;23;20015;-71
2021/01/21 07:32:43;;;;;;;11.13;4.10;;;24.30;58.30;;;;;;6238873;23;20545;-73
2021/01/21 07:35:33;;;;;;;15.02;4.85;;;24.40;58.30;;;;;;6238717;23;20011;-72
2021/01/21 07:38:00;;;;;;;7.97;3.38;;;24.40;57.90;;;;;;6230987;22;20015;-72
2021/01/21 07:40:45;;;;;;;18.50;4.95;;;24.40;57.60;;;;;;6237949;23;20078;-75
2021/01/21 07:43:11;;;;;;;10.13;3.53;;;24.50;57.20;;;;;;6241491;23;20012;-74
2021/01/21 07:45:38;;;;;;;11.25;2.72;;;24.50;57.50;;;;;;6242937;23;20012;-72
2021/01/21 07:48:25;;;;;;;7.78;2.88;;;24.60;57.40;;;;;;6242552;23;20002;-69
2021/01/21 07:50:53;;;;;;;9.38;3.17;;;24.60;56.60;;;;;;6243251;23;20443;-71
2021/01/21 07:53:24;;;;;;;10.73;3.08;;;24.70;57.30;;;;;;6242325;23;19996;-72
2021/01/21 07:55:52;;;;;;;8.63;2.25;;;24.70;57.10;;;;;;6242560;23;20000;-71
2021/01/21 07:58:23;;;;;;;8.95;2.78;;;24.70;56.50;;;;;;6242595;22;20003;-73
2021/01/21 08:00:52;;;;;;;7.50;2.35;;;24.70;56.00;;;;;;6242435;23;20016;-69
2021/01/21 08:03:28;;;;;;;8.88;2.75;;;24.80;55.90;;;;;;6243492;22;19996;-73
2021/01/21 08:06:10;;;;;;;15.35;6.38;;;24.90;55.80;;;;;;6241387;23;20039;-74
2021/01/21 08:08:38;;;;;;;16.25;8.80;;;24.90;55.40;;;;;;6242761;23;20031;-71
2021/01/21 08:11:07;;;;;;;21.83;16.00;;;25.00;56.00;;;;;;6234918;22;20015;-75
2021/01/21 08:13:34;;;;;;;15.80;10.48;;;25.00;56.00;;;;;;6237835;23;20011;-71
2021/01/21 08:16:02;;;;;;;13.48;8.02;;;25.00;55.60;;;;;;6240896;22;20320;-76
2021/01/21 08:18:29;;;;;;;17.02;6.20;;;25.10;55.30;;;;;;6236821;23;20320;-70
2021/01/21 08:20:55;;;;;;;13.18;5.63;;;25.10;54.50;;;;;;6241155;22;20005;-69
2021/01/21 08:23:22;;;;;;;11.52;5.72;;;25.10;54.10;;;;;;6240575;23;20004;-72
2021/01/21 08:25:53;;;;;;;8.82;3.60;;;25.20;54.30;;;;;;6241325;23;20015;-69
2021/01/21 08:28:28;;;;;;;10.45;4.30;;;25.20;53.90;;;;;;6241107;22;20079;-71
2021/01/21 08:30:54;;;;;;;;;;;25.30;54.30;;;;;;6241997;23;20028;-69
2021/01/21 08:33:24;;;;;;;16.23;3.08;;;25.30;54.00;;;;;;6241673;23;19907;-70
2021/01/21 08:36:01;;;;;;;11.48;5.05;;;25.30;53.70;;;;;;6241703;23;20030;-72
2021/01/21 08:38:32;;;;;;;11.07;3.63;;;25.40;54.60;;;;;;6242138;23;20446;-69
2021/01/21 08:40:59;;;;;;;13.57;2.42;;;25.40;54.30;;;;;;6240515;23;20205;-69
2021/01/21 08:43:26;;;;;;;13.40;3.53;;;25.60;54.60;;;;;;6241584;22;20509;-71
2021/01/21 08:45:53;;;;;;;4.88;2.50;;;25.60;54.00;;;;;;6241327;23;20008;-73
2021/01/21 08:48:31;;;;;;;7.45;1.98;;;25.70;54.20;;;;;;6241762;23;20023;-72
2021/01/21 08:50:58;;;;;;;10.68;2.67;;;25.70;53.90;;;;;;6241822;23;20075;-68
2021/01/21 08:53:28;;;;;;;16.52;10.25;;;25.80;53.40;;;;;;6240371;23;19996;-69
2021/01/21 08:55:58;;;;;;;27.73;8.57;;;25.90;54.20;;;;;;6241988;23;20035;-68
2021/01/21 08:58:33;;;;;;;18.10;10.82;;;26.00;54.00;;;;;;6240756;23;20054;-68
2021/01/21 09:01:07;;;;;;;16.40;6.90;;;26.00;54.10;;;;;;6241491;23;20449;-68
2021/01/21 09:03:48;;;;;;;12.37;4.47;;;26.10;54.40;;;;;;6241377;23;20406;-68
2021/01/21 09:06:17;;;;;;;23.20;9.32;;;26.20;53.70;;;;;;6240872;23;20038;-68
2021/01/21 09:08:56;;;;;;;23.58;11.80;;;26.20;52.70;;;;;;6242092;22;20431;-69
2021/01/21 09:11:27;;;;;;;14.70;9.13;;;26.30;52.70;;;;;;6239203;23;20405;-71
2021/01/21 09:13:54;;;;;;;11.52;5.40;;;26.30;52.50;;;;;;6241568;23;20447;-68
2021/01/21 09:16:38;;;;;;;17.00;5.55;;;26.30;52.90;;;;;;6241011;23;20000;-71
2021/01/21 09:19:04;;;;;;;15.60;4.35;;;26.40;52.50;;;;;;6240280;22;20440;-70
2021/01/21 09:21:31;;;;;;;8.50;4.00;;;26.50;51.80;;;;;;6242346;23;20433;-70
2021/01/21 09:24:09;;;;;;;11.55;3.90;;;26.50;51.90;;;;;;6239820;23;20011;-71
2021/01/21 09:26:37;;;;;;;8.23;3.58;;;26.50;52.30;;;;;;6239641;23;20016;-71
2021/01/21 09:29:04;;;;;;;5.45;2.88;;;26.60;51.50;;;;;;6241295;23;20107;-71
2021/01/21 09:31:33;;;;;;;22.80;14.18;;;26.60;51.90;;;;;;6239439;23;20011;-72
2021/01/21 09:34:00;;;;;;;18.60;7.88;;;26.70;52.20;;;;;;6241599;23;20050;-71
2021/01/21 09:36:30;;;;;;;12.77;5.93;;;26.70;51.10;;;;;;6240852;23;20004;-70
2021/01/21 09:38:57;;;;;;;10.60;4.53;;;26.70;50.60;;;;;;6241789;23;20091;-71
2021/01/21 09:41:25;;;;;;;9.50;3.47;;;26.80;51.10;;;;;;6240612;23;20065;-70
2021/01/21 09:43:51;;;;;;;9.95;3.83;;;26.80;50.70;;;;;;6241880;23;20466;-71
2021/01/21 09:46:18;;;;;;;9.10;2.75;;;26.90;51.10;;;;;;6240855;23;20012;-69
2021/01/21 09:48:44;;;;;;;7.63;3.10;;;27.00;50.80;;;;;;6241047;23;20420;-70
2021/01/21 09:51:10;;;;;;;10.95;2.40;;;27.00;50.20;;;;;;6240966;23;20027;-71
2021/01/21 09:53:37;;;;;;;7.35;2.28;;;27.10;50.70;;;;;;6241361;23;20023;-71
2021/01/21 09:56:04;;;;;;;23.17;9.95;;;27.20;50.80;;;;;;6242141;23;20350;-71
2021/01/21 09:58:31;;;;;;;13.40;4.13;;;27.20;49.80;;;;;;6239395;23;20018;-70
2021/01/21 10:00:58;;;;;;;9.68;3.67;;;27.20;49.50;;;;;;6241152;23;20051;-71
2021/01/21 10:03:26;;;;;;;9.35;3.10;;;27.20;49.50;;;;;;6240402;23;19996;-75
2021/01/21 10:05:53;;;;;;;9.57;3.53;;;27.30;49.90;;;;;;6240943;23;20015;-71
2021/01/21 10:08:20;;;;;;;21.50;3.70;;;27.20;49.00;;;;;;6239945;22;20004;-71
2021/01/21 10:10:46;;;;;;;6.72;2.20;;;27.30;49.40;;;;;;6240833;23;19996;-71
2021/01/21 10:13:13;;;;;;;11.07;3.42;;;27.40;49.50;;;;;;6241553;23;20005;-74
2021/01/21 10:15:39;;;;;;;5.60;2.63;;;27.40;49.50;;;;;;6239298;23;20000;-73
2021/01/21 10:18:06;;;;;;;13.20;2.55;;;27.50;49.50;;;;;;6241562;23;20000;-74
2021/01/21 10:20:32;;;;;;;5.78;2.22;;;27.50;49.20;;;;;;6239567;22;20344;-71
2021/01/21 10:22:59;;;;;;;6.80;2.83;;;27.40;49.70;;;;;;6241517;23;20412;-75
2021/01/21 10:25:25;;;;;;;12.80;2.53;;;27.50;50.10;;;;;;6240376;23;20015;-70
2021/01/21 10:27:52;;;;;;;8.65;3.35;;;27.50;50.60;;;;;;6233727;23;20000;-74
2021/01/21 10:30:19;;;;;;;16.10;2.97;;;27.50;50.60;;;;;;6239784;23;20000;-72
2021/01/21 10:32:45;;;;;;;14.30;3.00;;;27.60;50.70;;;;;;6240122;23;19996;-73
2021/01/21 10:35:13;;;;;;;12.80;2.88;;;27.70;50.80;;;;;;6241231;23;19996;-70
2021/01/21 10:37:40;;;;;;;9.40;2.75;;;27.70;50.60;;;;;;6239566;23;20004;-71
2021/01/21 10:40:07;;;;;;;10.52;2.95;;;27.70;50.50;;;;;;6241458;23;20446;-69
2021/01/21 10:42:34;;;;;;;8.43;2.20;;;27.80;51.20;;;;;;6239246;23;20027;-69
2021/01/21 10:45:00;;;;;;;6.35;1.95;;;27.80;51.10;;;;;;6240920;23;20134;-71
2021/01/21 10:47:27;;;;;;;9.88;2.90;;;27.80;51.30;;;;;;6241514;23;20000;-69
2021/01/21 10:49:53;;;;;;;7.75;2.42;;;27.90;50.90;;;;;;6240421;23;20416;-69
2021/01/21 10:52:20;;;;;;;8.98;3.63;;;27.80;51.10;;;;;;6241476;23;20005;-69
2021/01/21 10:54:46;;;;;;;9.50;3.78;;;27.80;51.10;;;;;;6239688;23;20016;-70
2021/01/21 10:57:13;;;;;;;8.98;2.28;;;27.90;51.20;;;;;;6240691;23;20004;-69
2021/01/21 10:59:39;;;;;;;12.35;3.55;;;27.90;51.30;;;;;;6239850;22;20027;-70
2021/01/21 11:02:06;;;;;;;8.05;3.22;;;28.00;52.30;;;;;;6240197;22;20012;-71
2021/01/21 11:04:33;;;;;;;10.32;3.60;;;28.00;51.10;;;;;;6240229;23;20000;-70
2021/01/21 11:07:00;;;;;;;13.15;5.70;;;28.00;51.10;;;;;;6234558;23;20108;-69
2021/01/21 11:09:35;;;;;;;14.15;3.60;;;28.00;51.50;;;;;;6240238;23;20007;-69
2021/01/21 11:12:04;;;;;;;17.13;4.78;;;28.00;51.60;;;;;;6237313;23;20010;-68
2021/01/21 11:14:31;;;;;;;10.77;3.45;;;28.10;51.90;;;;;;6240700;23;20043;-69
2021/01/21 11:16:59;;;;;;;14.00;3.97;;;28.20;51.60;;;;;;6239669;23;20416;-70
2021/01/21 11:19:25;;;;;;;16.80;8.85;;;28.20;51.60;;;;;;6240241;23;20569;-69
2021/01/21 11:21:53;;;;;;;10.02;5.13;;;28.20;52.00;;;;;;6240352;23;19996;-69
2021/01/21 11:24:20;;;;;;;12.00;4.72;;;28.20;51.90;;;;;;6238941;23;20030;-69
2021/01/21 11:26:47;;;;;;;13.15;5.40;;;28.20;52.50;;;;;;6240830;23;20051;-70
2021/01/21 11:29:13;;;;;;;13.43;4.60;;;28.30;52.40;;;;;;6239725;23;20420;-69
2021/01/21 11:31:40;;;;;;;7.43;3.22;;;28.30;52.10;;;;;;6240543;23;20075;-69
2021/01/21 11:34:07;;;;;;;9.73;3.50;;;28.30;52.50;;;;;;6239625;23;20007;-69
2021/01/21 11:36:33;;;;;;;12.35;3.95;;;28.30;52.20;;;;;;6239991;22;20011;-69
2021/01/21 11:39:00;;;;;;;12.18;3.25;;;28.30;52.50;;;;;;6240318;23;20007;-69
2021/01/21 11:41:26;;;;;;;10.02;5.55;;;28.20;52.80;;;;;;6241000;23;20018;-69
2021/01/21 11:43:52;;;;;;;11.30;4.25;;;28.20;53.00;;;;;;6241936;23;20054;-71
2021/01/21 11:46:19;;;;;;;9.70;2.92;;;28.10;52.90;;;;;;6240381;23;20012;-69
2021/01/21 11:48:45;;;;;;;9.68;3.28;;;28.00;53.30;;;;;;6241301;23;20067;-69
2021/01/21 11:51:12;;;;;;;7.72;3.33;;;28.00;53.60;;;;;;6240504;23;20046;-70
2021/01/21 11:53:39;;;;;;;8.30;3.10;;;28.00;53.70;;;;;;6240460;23;20079;-77
2021/01/21 11:56:06;;;;;;;8.80;2.67;;;27.90;53.80;;;;;;6240075;23;20034;-69
2021/01/21 11:58:32;;;;;;;13.80;9.70;;;27.90;54.10;;;;;;6240510;23;20001;-69
2021/01/21 12:00:59;;;;;;;15.43;4.90;;;27.90;54.20;;;;;;6240298;23;20039;-69
2021/01/21 12:03:26;;;;;;;10.75;3.92;;;27.80;54.30;;;;;;6241582;23;20065;-69
2021/01/21 12:05:52;;;;;;;8.65;3.78;;;27.80;54.60;;;;;;6243008;23;20004;-69
2021/01/21 12:08:19;;;;;;;10.80;3.00;;;27.80;54.90;;;;;;6241931;23;20006;-69
2021/01/21 12:10:46;;;;;;;10.60;2.72;;;27.70;55.30;;;;;;6243097;23;20008;-71
2021/01/21 12:13:12;;;;;;;10.77;4.10;;;27.70;55.60;;;;;;6242119;23;20007;-69
2021/01/21 12:15:39;;;;;;;16.35;4.00;;;27.60;55.80;;;;;;6242758;23;20039;-68
2021/01/21 12:18:05;;;;;;;14.48;4.15;;;27.60;55.80;;;;;;6242261;23;20035;-68
2021/01/21 12:20:32;;;;;;;10.77;4.90;;;27.60;56.00;;;;;;6241794;23;20038;-73
2021/01/21 12:22:58;;;;;;;12.70;3.60;;;27.50;56.30;;;;;;6242830;23;20004;-73
2021/01/21 12:25:24;;;;;;;11.60;3.65;;;27.50;56.60;;;;;;6240723;23;20428;-75
2021/01/21 12:27:51;;;;;;;17.17;3.20;;;27.40;56.80;;;;;;6243003;23;20000;-70
2021/01/21 12:30:18;;;;;;;13.35;4.32;;;27.40;56.90;;;;;;6240919;23;20039;-75
2021/01/21 12:32:45;;;;;;;7.82;2.90;;;27.30;57.10;;;;;;6241913;23;20007;-70
2021/01/21 12:35:12;;;;;;;9.15;2.97;;;27.30;57.40;;;;;;6239196;23;20091;-73
2021/01/21 12:37:38;;;;;;;10.07;3.13;;;27.20;57.30;;;;;;6241714;23;20359;-72
2021/01/21 12:40:06;;;;;;;8.45;2.63;;;27.30;57.30;;;;;;6241736;23;20378;-74
2021/01/21 12:42:32;;;;;;;11.20;3.38;;;27.20;57.30;;;;;;6241542;23;20090;-70
2021/01/21 12:44:59;;;;;;;9.70;3.10;;;27.30;57.40;;;;;;6242002;23;20398;-73
2021/01/21 12:47:25;;;;;;;12.18;3.17;;;27.30;57.60;;;;;;6239882;22;20023;-76